Cala Pula — IBID — position and weather

sailwx.info

Track history (hours):
 
Tides and Currents Weather Stations Pressure Air Temp Water Temp Dewpoint Dewpoint Depression Visibility Wind Speed Wind Dir Waves Ship Positions

Cala Pula

Last reported at 2014-Aug-09 05:10 UTC. Time now 2014-Aug-27 13:09 UTC.
Position N 37°48' W 000°18'.
Warning: this ship's position is 18 days out of date.

Length 189 m; draft 7.4 m.

Type: Cargo ship. MMSI: 247585000.

Date/timePositionNaut miles runAvg speedWind from/ knotsBaromVisibWave heightAir tempDewpointWater temp
2014-Aug-09 05:10N 37°48' W 000°18'1219.8
2014-Aug-09 04:33N 37°58' W 000°09'2020.0
2014-Aug-09 03:33N 38°13' E 000°08'2019.3
2014-Aug-09 02:31N 38°27' E 000°26'4719.4
2014-Aug-09 00:05N 39°03' E 001°05'917.4
2014-Aug-08 23:32N 39°10' E 001°14'2518.5
2014-Aug-08 22:12N 39°27' E 001°36'3018.3
2014-Aug-08 20:34N 39°47' E 002°06'1918.6
2014-Aug-08 19:33N 39°56' E 002°27'1717.3
2014-Aug-08 18:33N 40°09' E 002°42'2118.6
2014-Aug-08 17:24N 40°27' E 002°58'2219.2
2014-Aug-08 16:15N 40°43' E 003°19'10918.8
2014-Aug-08 10:29N 41°57' E 005°05'3819.6
2014-Aug-08 08:32N 42°22' E 005°43'5618.5
2014-Aug-08 05:32N 42°60' E 006°39'1919.5
2014-Aug-08 04:33N 43°12' E 006°59'8319.2
2014-Aug-08 00:13N 44°06' E 008°27'1014.8
2014-Aug-07 23:31N 44°16' E 008°29'1 1.1
2014-Aug-07 22:29N 44°16' E 008°27'0 0.0
2014-Aug-07 20:09N 44°16' E 008°27'0 0.0
2014-Aug-07 19:33N 44°16' E 008°27'0 0.0
2014-Aug-07 18:32N 44°16' E 008°27'0 0.0
2014-Aug-07 17:31N 44°16' E 008°27'0 0.0
2014-Aug-07 16:08N 44°16' E 008°27'0 0.0
2014-Aug-07 15:33N 44°16' E 008°27'0 0.0
2014-Aug-07 14:33N 44°16' E 008°27'0 0.0
2014-Aug-07 13:34N 44°16' E 008°27'0 0.0
2014-Aug-07 11:30N 44°16' E 008°27'0 0.0
2014-Aug-07 10:31N 44°16' E 008°27'84 7.6
2014-Aug-06 23:29N 43°14' E 007°08'1819.4
2014-Aug-06 22:33N 43°02' E 006°49'1918.9
2014-Aug-06 21:33N 42°51' E 006°29'2220.6
2014-Aug-06 20:30N 42°42' E 006°01'1819.1
2014-Aug-06 19:33N 42°34' E 005°40'2019.9
2014-Aug-06 18:33N 42°26' E 005°15'2320.8
2014-Aug-06 17:25N 42°16' E 004°46'1820.5
2014-Aug-06 16:33N 42°09' E 004°24'8120.3
2014-Aug-06 12:33N 41°30' E 002°49'  
Track history (hours):
 
Tides and Currents Weather Stations Pressure Air Temp Water Temp Dewpoint Dewpoint Depression Visibility Wind Speed Wind Dir Waves Ship Positions

Cala Pula

Last reported at 2014-Aug-09 05:10 UTC. Time now 2014-Aug-27 13:09 UTC.
Position N 37°48' W 000°18'.
Warning: this ship's position is 18 days out of date.

Length 189 m; draft 7.4 m.

Type: Cargo ship. MMSI: 247585000.

Date/timePositionNaut miles runAvg speedWind from/ knotsBaromVisibWave heightAir tempDewpointWater temp
2014-Aug-09 05:10N 37°48' W 000°18'1219.8
2014-Aug-09 04:33N 37°58' W 000°09'2020.0
2014-Aug-09 03:33N 38°13' E 000°08'2019.3
2014-Aug-09 02:31N 38°27' E 000°26'4719.4
2014-Aug-09 00:05N 39°03' E 001°05'917.4
2014-Aug-08 23:32N 39°10' E 001°14'2518.5
2014-Aug-08 22:12N 39°27' E 001°36'3018.3
2014-Aug-08 20:34N 39°47' E 002°06'1918.6
2014-Aug-08 19:33N 39°56' E 002°27'1717.3
2014-Aug-08 18:33N 40°09' E 002°42'2118.6
2014-Aug-08 17:24N 40°27' E 002°58'2219.2
2014-Aug-08 16:15N 40°43' E 003°19'10918.8
2014-Aug-08 10:29N 41°57' E 005°05'3819.6
2014-Aug-08 08:32N 42°22' E 005°43'5618.5
2014-Aug-08 05:32N 42°60' E 006°39'1919.5
2014-Aug-08 04:33N 43°12' E 006°59'8319.2
2014-Aug-08 00:13N 44°06' E 008°27'1014.8
2014-Aug-07 23:31N 44°16' E 008°29'1 1.1
2014-Aug-07 22:29N 44°16' E 008°27'0 0.0
2014-Aug-07 20:09N 44°16' E 008°27'0 0.0
2014-Aug-07 19:33N 44°16' E 008°27'0 0.0
2014-Aug-07 18:32N 44°16' E 008°27'0 0.0
2014-Aug-07 17:31N 44°16' E 008°27'0 0.0
2014-Aug-07 16:08N 44°16' E 008°27'0 0.0
2014-Aug-07 15:33N 44°16' E 008°27'0 0.0
2014-Aug-07 14:33N 44°16' E 008°27'0 0.0
2014-Aug-07 13:34N 44°16' E 008°27'0 0.0
2014-Aug-07 11:30N 44°16' E 008°27'0 0.0
2014-Aug-07 10:31N 44°16' E 008°27'84 7.6
2014-Aug-06 23:29N 43°14' E 007°08'1819.4
2014-Aug-06 22:33N 43°02' E 006°49'1918.9
2014-Aug-06 21:33N 42°51' E 006°29'2220.6
2014-Aug-06 20:30N 42°42' E 006°01'1819.1
2014-Aug-06 19:33N 42°34' E 005°40'2019.9
2014-Aug-06 18:33N 42°26' E 005°15'2320.8
2014-Aug-06 17:25N 42°16' E 004°46'1820.5
2014-Aug-06 16:33N 42°09' E 004°24'8120.3
2014-Aug-06 12:33N 41°30' E 002°49'  

Dump ship's entire track history